logo
Rechercher aéroport 
image banner adimage banner adimage banner ad
image banner ad

CJF2 - Riviere L'acadie

Situé à Carignan, Canada

ICAO - , IATA -

Données fournies par Airmate  

Information générale

Coordonnées: N45°28'26" W73°17'42"
Élévation : 30 feet MSL.
Variation magnétique : -14.8253° East
Voir autres Aéroports à Quebec

Données opérationnelles

Special qualification required
Heure actuelle UTC:
Heure actuelle locale:
Météo à : CYHU - St-Hubert ( 11 km )
METAR: CYHU 070200Z AUTO 06004KT 9SM CLR M15/M19 A3036 RMK SLP287
TAF: TAF CYHU 060540Z 0606/0706 01005KT P6SM SCT012 OVC030 TEMPO 0606/0610 5SM -SN BR BKN008 OVC020 FM061000 02005KT P6SM SCT015 OVC030 TEMPO 0610/0612 5SM -SHSN BR OVC015 PROB30 0610/0612 BKN008 OVC012 FM061200 35008KT P6SM SCT008 OVC012 FM061500 01012KT P6SM SCT015 BECMG 0622/0624 VRB03KT FM070000 VRB03KT P6SM SKC RMK FCST BASED ON AUTO OBS. NXT FCST BY 061200Z
Voir NOTAMs / SUP AIP / TFR affectant cet aéroport [VIEW]
Fréquences de communication: [VIEW]

Pistes:

Identifiant RWYQFULongueur (ft)Largeur (ft)SurfaceLDA (ft)
W00WATER

Coordonnées de l'aéroport

Adresse: Carignan Canada

Vue satellite de CJF2